CYCG

Castlegar/West Kootenay Regional Airport

Castlegar, British Columbia, Canada
METAR CYCG 170100Z 19011KT 15SM FEW023 BKN071 OVC140 M00/M04 A3021 RMK SC2AC5AC1 LAST OBS/NEXT 171400UTC SLP252
Observed Flight Rules
Dec-17 @ 01:00 UTC (5 hours ago) Visual Flight Rules
Wind Visibility Clouds
190° at 11 knots 15 miles
  • Few at 2,300' AGL
  • Broken at 7,100' AGL
  • Overcast at 14,000' AGL
Temperatures Readings
Current 0°C / 32°F
Dewpoint -4°C / 25°F
Humidity 75%
Altimeter 30.21" Hg
Pressure 1025.2 hPa
Elevation 495
METAR CYCG 170100Z 19011KT 15SM FEW023 BKN071 OVC140 M00/M04 A3021 RMK SC2AC5AC1 LAST OBS/NEXT 171400UTC SLP252
Observed Flight Rules
Dec-17 @ 01:00 UTC
(5 hours ago)
VFR
Wind Visibility
190° at 11 knots 15 miles
Clouds
  • Few at 2,300' AGL
  • Broken at 7,100' AGL
  • Overcast at 14,000' AGL
Temperature Dewpoint
0°C / 32°F -4°C / 25°F
Humidity Altimeter Pressure
75% 30.21" Hg 1025.2 hPa